Time;durP1;ratioP1;P1;durP2;ratioP2;P2;SDS_P1;SDS_P2;PMS_P1;PMS_P2;Temp;Humidity;BMP_temperature;BMP_pressure;BME280_temperature;BME280_humidity;BME280_pressure;Samples;Min_cycle;Max_cycle;Signal;HPM_P1;HPM_P2
2022/10/05 00:00:19;;;;;;;;;;;23.00;52.90;;;;;;1546597;75;1942;-57
2022/10/05 00:02:21;;;;;;;;;;;22.90;52.90;;;;;;1559387;75;696;-57
2022/10/05 00:04:23;;;;;;;;;;;22.90;53.00;;;;;;1553177;74;1111;-59
2022/10/05 00:06:27;;;;;;;;;;;22.90;52.90;;;;;;1544506;75;775;-60
2022/10/05 00:08:35;;;;;;;;;;;22.90;52.80;;;;;;1527022;75;1515;-57
2022/10/05 00:10:38;;;;;;;;;;;22.90;52.80;;;;;;1537534;75;765;-56
2022/10/05 00:12:39;;;;;;;;;;;22.90;52.90;;;;;;1539000;75;758;-59
2022/10/05 00:14:42;;;;;;;;;;;22.90;52.80;;;;;;1530732;75;1137;-56
2022/10/05 00:16:44;;;;;;;;;;;23.00;53.00;;;;;;1534991;75;727;-57
2022/10/05 00:18:47;;;;;;;;;;;22.90;53.00;;;;;;1538837;75;748;-57
2022/10/05 00:20:49;;;;;;;;;;;22.90;52.90;;;;;;1540069;75;1944;-59
2022/10/05 00:22:56;;;;;;;;;;;22.90;53.10;;;;;;1537761;75;1538;-59
2022/10/05 00:24:59;;;;;;;;;;;22.90;53.00;;;;;;1545143;75;1809;-60
2022/10/05 00:27:01;;;;;;;;;;;23.00;53.00;;;;;;1542276;75;718;-58
2022/10/05 00:29:04;;;;;;;;;;;22.90;53.00;;;;;;1538472;75;739;-57
2022/10/05 00:31:08;;;;;;;;;;;22.90;53.10;;;;;;1535389;75;1624;-57
2022/10/05 00:33:10;;;;;;;;;;;22.90;53.10;;;;;;1515662;75;1901;-57
2022/10/05 00:35:12;;;;;;;;;;;22.90;53.10;;;;;;1543560;75;1113;-60
2022/10/05 00:37:14;;;;;;;;;;;22.90;53.10;;;;;;1546937;75;1368;-60
2022/10/05 00:39:17;;;;;;;;;;;22.90;53.10;;;;;;1550639;75;717;-59
2022/10/05 00:41:30;;;;;;;;;;;22.90;53.00;;;;;;1553175;75;1934;-56
2022/10/05 00:43:36;;;;;;;;;;;22.90;53.10;;;;;;1549838;75;732;-57
2022/10/05 00:45:42;;;;;;;;;;;22.90;53.10;;;;;;1543283;75;2223;-58
2022/10/05 00:47:46;;;;;;;;;;;22.90;53.10;;;;;;1548319;75;694;-58
2022/10/05 00:49:49;;;;;;;;;;;22.90;53.10;;;;;;1538549;75;2000;-59
2022/10/05 00:51:56;;;;;;;;;;;22.90;53.10;;;;;;1538175;73;2140;-57
2022/10/05 00:54:05;;;;;;;;;;;22.80;53.00;;;;;;1580775;74;1648;-59
2022/10/05 00:56:09;;;;;;;;;;;22.90;53.10;;;;;;1573069;74;1212;-59
2022/10/05 00:58:18;;;;;;;;;;;22.90;53.00;;;;;;1566131;74;771;-59
2022/10/05 01:00:20;;;;;;;;;;;23.00;53.10;;;;;;1579687;74;1742;-58
2022/10/05 01:02:23;;;;;;;;;;;23.00;53.10;;;;;;1558642;75;1941;-57
2022/10/05 01:04:33;;;;;;;;;;;22.90;53.10;;;;;;1585268;73;1585;-59
2022/10/05 01:06:39;;;;;;;;;;;23.00;53.20;;;;;;1580807;74;1542;-59
2022/10/05 01:08:58;;;;;;;;;;;22.90;53.20;;;;;;1593612;73;690;-55
2022/10/05 01:11:11;;;;;;;;;;;22.80;53.20;;;;;;1578456;74;709;-56
2022/10/05 01:13:26;;;;;;;;;;;22.90;53.40;;;;;;1582210;74;771;-58
2022/10/05 01:15:30;;;;;;;;;;;22.80;53.40;;;;;;1582021;74;1875;-58
2022/10/05 01:17:40;;;;;;;;;;;22.90;53.50;;;;;;1583829;74;746;-58
2022/10/05 01:19:44;;;;;;;;;;;22.90;53.60;;;;;;1570784;73;1508;-58
2022/10/05 01:21:59;;;;;;;;;;;22.70;53.60;;;;;;1591938;74;1941;-58
2022/10/05 01:24:06;;;;;;;;;;;22.80;53.60;;;;;;1582024;74;1602;-57
2022/10/05 01:26:21;;;;;;;;;;;22.70;53.60;;;;;;1576802;73;2119;-58
2022/10/05 01:28:24;;;;;;;;;;;22.80;53.60;;;;;;1575414;74;1843;-54
2022/10/05 01:30:26;;;;;;;;;;;22.80;53.70;;;;;;1596070;74;646;-58
2022/10/05 01:32:30;;;;;;;;;;;22.70;53.60;;;;;;1588443;74;1576;-56
2022/10/05 01:34:39;;;;;;;;;;;22.80;53.70;;;;;;1572903;73;1143;-58
2022/10/05 01:36:49;;;;;;;;;;;22.70;53.70;;;;;;1588679;74;767;-58
2022/10/05 01:38:58;;;;;;;;;;;22.70;53.70;;;;;;1574128;73;689;-58
2022/10/05 01:41:02;;;;;;;;;;;22.60;53.70;;;;;;1575670;74;1928;-56
2022/10/05 01:43:11;;;;;;;;;;;22.60;53.70;;;;;;1583007;74;1988;-58
2022/10/05 01:45:18;;;;;;;;;;;22.60;53.80;;;;;;1577476;74;1211;-58
2022/10/05 01:47:21;;;;;;;;;;;22.60;53.80;;;;;;1589794;73;1618;-58
2022/10/05 01:49:34;;;;;;;;;;;22.70;53.90;;;;;;1585347;74;681;-58
2022/10/05 01:51:37;;;;;;;;;;;22.70;53.90;;;;;;1547177;74;1160;-58
2022/10/05 01:53:41;;;;;;;;;;;22.60;53.70;;;;;;1581418;74;777;-57
2022/10/05 01:55:44;;;;;;;;;;;22.60;53.80;;;;;;1584555;73;1146;-58
2022/10/05 01:57:57;;;;;;;;;;;22.70;53.80;;;;;;1578715;74;1753;-56
2022/10/05 02:00:12;;;;;;;;;;;22.70;53.80;;;;;;1575841;74;749;-58
2022/10/05 02:02:15;;;;;;;;;;;22.70;53.80;;;;;;1580166;74;1902;-57
2022/10/05 02:04:24;;;;;;;;;;;22.70;53.70;;;;;;1584970;74;734;-58
2022/10/05 02:06:27;;;;;;;;;;;22.70;53.60;;;;;;1578213;74;707;-54
2022/10/05 02:08:33;;;;;;;;;;;22.80;53.60;;;;;;1573624;75;723;-57
2022/10/05 02:10:37;;;;;;;;;;;22.70;53.60;;;;;;1587800;74;792;-58
2022/10/05 02:12:39;;;;;;;;;;;22.70;53.50;;;;;;1577703;74;782;-57
2022/10/05 02:14:43;;;;;;;;;;;22.80;53.40;;;;;;1575354;74;1572;-54
2022/10/05 02:16:48;;;;;;;;;;;22.80;53.40;;;;;;1581502;74;1047;-58
2022/10/05 02:19:00;;;;;;;;;;;22.80;53.40;;;;;;1583513;74;937;-59
2022/10/05 02:21:02;;;;;;;;;;;22.90;53.50;;;;;;1578771;74;1931;-59
2022/10/05 02:23:06;;;;;;;;;;;22.90;53.60;;;;;;1583873;74;796;-58
2022/10/05 02:25:09;;;;;;;;;;;22.90;53.50;;;;;;1576463;73;1150;-59
2022/10/05 02:27:11;;;;;;;;;;;22.90;53.50;;;;;;1582467;74;744;-58
2022/10/05 02:29:13;;;;;;;;;;;22.80;53.50;;;;;;1581126;74;1397;-58
2022/10/05 02:31:16;;;;;;;;;;;22.80;53.50;;;;;;1578489;74;785;-57
2022/10/05 02:33:28;;;;;;;;;;;22.90;53.70;;;;;;1583302;74;1846;-59
2022/10/05 02:35:30;;;;;;;;;;;22.80;53.50;;;;;;1574371;74;1130;-58
2022/10/05 02:37:45;;;;;;;;;;;22.80;53.50;;;;;;1573084;74;777;-58
2022/10/05 02:39:49;;;;;;;;;;;22.80;53.50;;;;;;1576686;74;963;-59
2022/10/05 02:42:01;;;;;;;;;;;22.90;53.60;;;;;;1573180;74;1976;-59
2022/10/05 02:44:08;;;;;;;;;;;22.80;53.40;;;;;;1577013;73;1935;-58
2022/10/05 02:46:17;;;;;;;;;;;22.80;53.40;;;;;;1579693;74;1112;-59
2022/10/05 02:48:24;;;;;;;;;;;22.90;53.30;;;;;;1581056;74;1700;-59
2022/10/05 02:50:27;;;;;;;;;;;22.90;53.20;;;;;;1573528;74;738;-59
2022/10/05 02:52:31;;;;;;;;;;;22.90;53.10;;;;;;1578373;74;1863;-59
2022/10/05 02:54:40;;;;;;;;;;;23.00;53.10;;;;;;1585614;73;1818;-59
2022/10/05 02:56:49;;;;;;;;;;;22.90;53.10;;;;;;1583006;74;1454;-56
2022/10/05 02:58:56;;;;;;;;;;;22.90;53.10;;;;;;1569290;74;752;-58
2022/10/05 03:01:08;;;;;;;;;;;22.90;53.20;;;;;;1569938;74;1955;-53
2022/10/05 03:03:12;;;;;;;;;;;22.90;53.20;;;;;;1580569;74;1912;-55
2022/10/05 03:05:22;;;;;;;;;;;22.90;53.20;;;;;;1574379;74;1939;-58
2022/10/05 03:07:24;;;;;;;;;;;22.90;53.10;;;;;;1563030;75;741;-59
2022/10/05 03:09:26;;;;;;;;;;;22.90;53.20;;;;;;1580897;74;743;-56
2022/10/05 03:11:42;;;;;;;;;;;22.80;53.20;;;;;;1586194;74;1509;-58
2022/10/05 03:13:49;;;;;;;;;;;22.90;53.20;;;;;;1583248;74;764;-58
2022/10/05 03:16:01;;;;;;;;;;;22.90;53.20;;;;;;1578396;73;1142;-54
2022/10/05 03:18:04;;;;;;;;;;;22.90;53.30;;;;;;1581687;74;1970;-58
2022/10/05 03:20:08;;;;;;;;;;;22.90;53.40;;;;;;1575788;74;2056;-58
2022/10/05 03:22:28;;;;;;;;;;;22.90;53.40;;;;;;1579314;74;1942;-56
2022/10/05 03:24:32;;;;;;;;;;;22.80;53.40;;;;;;1585792;73;1146;-56
2022/10/05 03:26:53;;;;;;;;;;;22.80;53.40;;;;;;1580076;74;1952;-58
2022/10/05 03:28:59;;;;;;;;;;;22.80;53.40;;;;;;1586731;74;700;-58
2022/10/05 03:31:05;;;;;;;;;;;22.90;53.50;;;;;;1561821;74;1669;-56
2022/10/05 03:33:09;;;;;;;;;;;22.80;53.40;;;;;;1581238;74;782;-58
2022/10/05 03:35:11;;;;;;;;;;;22.80;53.50;;;;;;1591087;73;2126;-57
2022/10/05 03:37:15;;;;;;;;;;;22.80;53.40;;;;;;1578870;74;789;-57
2022/10/05 03:39:24;;;;;;;;;;;22.90;53.50;;;;;;1578287;74;1535;-57
2022/10/05 03:41:28;;;;;;;;;;;22.90;53.50;;;;;;1569788;74;1929;-58
2022/10/05 03:43:46;;;;;;;;;;;22.80;53.40;;;;;;1579876;74;779;-57
2022/10/05 03:45:59;;;;;;;;;;;22.90;53.50;;;;;;1589370;73;1938;-58
2022/10/05 03:48:18;;;;;;;;;;;22.90;53.40;;;;;;1582810;74;1552;-57
2022/10/05 03:50:21;;;;;;;;;;;22.90;53.40;;;;;;1581591;74;704;-57
2022/10/05 03:52:25;;;;;;;;;;;22.90;53.40;;;;;;1587758;74;1964;-56
2022/10/05 03:54:28;;;;;;;;;;;22.80;53.20;;;;;;1599454;73;1681;-56
2022/10/05 03:56:35;;;;;;;;;;;22.90;53.30;;;;;;1577460;73;729;-54
2022/10/05 03:58:44;;;;;;;;;;;22.90;53.10;;;;;;1589767;74;723;-56
2022/10/05 04:00:46;;;;;;;;;;;22.90;53.10;;;;;;1585100;74;724;-58
2022/10/05 04:02:59;;;;;;;;;;;22.90;53.10;;;;;;1582332;74;1963;-58
2022/10/05 04:05:08;;;;;;;;;;;22.90;53.10;;;;;;1586061;74;1147;-55
2022/10/05 04:07:11;;;;;;;;;;;23.00;52.90;;;;;;1579683;73;1575;-58
2022/10/05 04:09:17;;;;;;;;;;;23.00;52.70;;;;;;1577780;74;780;-58
2022/10/05 04:11:23;;;;;;;;;;;23.10;52.70;;;;;;1581740;74;581;-54
2022/10/05 04:13:27;;;;;;;;;;;23.00;52.60;;;;;;1584383;74;1887;-58
2022/10/05 04:15:33;;;;;;;;;;;23.00;52.80;;;;;;1575165;73;1905;-58
2022/10/05 04:17:45;;;;;;;;;;;23.00;52.90;;;;;;1575986;74;736;-57
2022/10/05 04:19:58;;;;;;;;;;;23.00;52.90;;;;;;1579326;74;805;-57
2022/10/05 04:22:01;;;;;;;;;;;23.00;53.00;;;;;;1584625;74;1942;-58
2022/10/05 04:24:04;;;;;;;;;;;23.00;53.00;;;;;;1578523;74;1355;-57
2022/10/05 04:26:08;;;;;;;;;;;23.00;53.10;;;;;;1579295;73;1090;-58
2022/10/05 04:28:11;;;;;;;;;;;22.90;53.10;;;;;;1573974;74;808;-57
2022/10/05 04:30:14;;;;;;;;;;;22.90;53.20;;;;;;1582464;74;794;-57
2022/10/05 04:32:17;;;;;;;;;;;22.90;53.30;;;;;;1588146;74;770;-57
2022/10/05 04:34:21;;;;;;;;;;;22.90;53.30;;;;;;1579040;74;704;-57
2022/10/05 04:36:33;;;;;;;;;;;22.80;53.20;;;;;;1583783;73;1914;-58
2022/10/05 04:38:48;;;;;;;;;;;22.80;53.30;;;;;;1582172;74;780;-56
2022/10/05 04:40:58;;;;;;;;;;;22.80;53.30;;;;;;1569245;74;670;-53
2022/10/05 04:43:18;;;;;;;;;;;22.90;53.40;;;;;;1577904;74;1938;-55
2022/10/05 04:45:25;;;;;;;;;;;22.80;53.30;;;;;;1585897;73;1166;-56
2022/10/05 04:47:37;;;;;;;;;;;22.80;53.30;;;;;;1581047;74;1461;-55
2022/10/05 04:49:41;;;;;;;;;;;22.80;53.50;;;;;;1570887;73;1762;-57
2022/10/05 04:51:44;;;;;;;;;;;22.80;53.40;;;;;;1580750;74;696;-57
2022/10/05 04:53:48;;;;;;;;;;;22.90;53.50;;;;;;1583307;74;1805;-58
2022/10/05 04:56:06;;;;;;;;;;;22.90;53.30;;;;;;1578411;73;1928;-58
2022/10/05 04:58:13;;;;;;;;;;;22.90;53.20;;;;;;1573471;74;2129;-60
2022/10/05 05:00:16;;;;;;;;;;;23.00;53.40;;;;;;1564830;74;1601;-58
2022/10/05 05:02:36;;;;;;;;;;;23.00;53.20;;;;;;1580406;74;1926;-58
2022/10/05 05:04:45;;;;;;;;;;;23.00;53.00;;;;;;1577512;74;1588;-59
2022/10/05 05:07:01;;;;;;;;;;;23.10;53.00;;;;;;1574438;74;698;-58
2022/10/05 05:09:14;;;;;;;;;;;23.10;53.00;;;;;;1573415;74;2029;-54
2022/10/05 05:11:20;;;;;;;;;;;23.20;52.80;;;;;;1577574;74;2164;-57
2022/10/05 05:13:40;;;;;;;;;;;23.20;52.60;;;;;;1580152;74;725;-55
2022/10/05 05:15:47;;;;;;;;;;;23.20;52.40;;;;;;1574630;74;1148;-58
2022/10/05 05:18:06;;;;;;;;;;;23.30;52.40;;;;;;1572460;74;1888;-55
2022/10/05 05:20:21;;;;;;;;;;;23.30;52.50;;;;;;1570435;74;839;-57
2022/10/05 05:22:25;;;;;;;;;;;23.30;52.50;;;;;;1584034;74;1937;-52
2022/10/05 05:24:45;;;;;;;;;;;23.20;52.50;;;;;;1582340;74;1203;-55
2022/10/05 05:27:03;;;;;;;;;;;23.20;52.60;;;;;;1576409;74;726;-57
2022/10/05 05:29:10;;;;;;;;;;;23.20;52.70;;;;;;1589054;74;712;-56
2022/10/05 05:31:13;;;;;;;;;;;23.20;52.60;;;;;;1586976;73;1806;-56
2022/10/05 05:33:20;;;;;;;;;;;23.20;52.50;;;;;;1586142;74;953;-57
2022/10/05 05:35:30;;;;;;;;;;;23.30;52.50;;;;;;1588800;73;1152;-57
2022/10/05 05:37:32;;;;;;;;;;;23.30;52.40;;;;;;1582312;74;779;-57
2022/10/05 05:39:35;;;;;;;;;;;23.20;52.40;;;;;;1573518;74;791;-56
2022/10/05 05:41:38;;;;;;;;;;;23.20;52.50;;;;;;1581421;74;1704;-56
2022/10/05 05:43:52;;;;;;;;;;;23.30;52.60;;;;;;1579028;74;1941;-57
2022/10/05 05:45:55;;;;;;;;;;;23.30;52.40;;;;;;1582226;73;1525;-55
2022/10/05 05:47:58;;;;;;;;;;;23.30;52.30;;;;;;1578211;74;1948;-52
2022/10/05 05:50:17;;;;;;;;;;;23.40;52.30;;;;;;1571543;74;798;-55
2022/10/05 05:52:31;;;;;;;;;;;23.30;52.20;;;;;;1583057;74;1152;-56
2022/10/05 05:54:35;;;;;;;;;;;23.30;52.30;;;;;;1551435;75;1165;-57
2022/10/05 05:56:38;;;;;;;;;;;23.20;52.30;;;;;;1518291;77;706;-55
2022/10/05 05:58:58;;;;;;;;;;;23.20;52.30;;;;;;1528878;76;730;-55
2022/10/05 06:01:04;;;;;;;;;;;23.10;52.40;;;;;;1521114;76;1501;-55
2022/10/05 06:03:10;;;;;;;;;;;23.00;52.50;;;;;;1558916;74;1946;-55
2022/10/05 06:05:20;;;;;;;;;;;23.00;52.60;;;;;;1578559;73;1142;-55
2022/10/05 06:07:23;;;;;;;;;;;23.00;52.70;;;;;;1579813;74;1858;-55
2022/10/05 06:09:30;;;;;;;;;;;22.90;52.80;;;;;;1573849;74;1800;-53
2022/10/05 06:11:36;;;;;;;;;;;22.70;52.80;;;;;;1584166;74;1918;-55
2022/10/05 06:13:39;;;;;;;;;;;22.80;52.80;;;;;;1572817;73;1544;-55
2022/10/05 06:15:42;;;;;;;;;;;22.70;52.90;;;;;;1582176;73;1160;-55
2022/10/05 06:17:53;;;;;;;;;;;22.70;53.00;;;;;;1580509;74;1839;-55
2022/10/05 06:19:56;;;;;;;;;;;22.70;53.00;;;;;;1577203;74;730;-56
2022/10/05 06:22:00;;;;;;;;;;;22.70;53.00;;;;;;1582572;74;715;-56
2022/10/05 06:24:12;;;;;;;;;;;22.60;53.00;;;;;;1588794;74;1931;-52
2022/10/05 06:26:32;;;;;;;;;;;22.60;53.00;;;;;;1584510;73;1126;-53
2022/10/05 06:28:34;;;;;;;;;;;22.60;53.00;;;;;;1584480;74;1612;-53
2022/10/05 06:30:54;;;;;;;;;;;22.60;53.00;;;;;;1584276;74;713;-55
2022/10/05 06:32:58;;;;;;;;;;;22.60;53.00;;;;;;1581373;74;702;-57
2022/10/05 06:35:01;;;;;;;;;;;22.60;53.00;;;;;;1580920;73;1884;-56
2022/10/05 06:37:04;;;;;;;;;;;22.70;53.00;;;;;;1577037;74;750;-56
2022/10/05 06:39:23;;;;;;;;;;;22.60;52.90;;;;;;1577440;74;844;-55
2022/10/05 06:41:27;;;;;;;;;;;22.70;53.10;;;;;;1580991;74;1945;-50
2022/10/05 06:43:47;;;;;;;;;;;22.60;53.00;;;;;;1581636;74;1947;-54
2022/10/05 06:46:07;;;;;;;;;;;22.60;52.90;;;;;;1575591;73;1109;-56
2022/10/05 06:48:27;;;;;;;;;;;22.60;53.00;;;;;;1579607;74;859;-56
2022/10/05 06:50:37;;;;;;;;;;;22.60;52.90;;;;;;1574412;74;733;-56
2022/10/05 06:52:43;;;;;;;;;;;22.60;52.90;;;;;;1577896;71;233539;-67
2022/10/05 06:54:47;;;;;;;;;;;22.50;52.90;;;;;;1567388;75;902;-67
2022/10/05 06:56:50;;;;;;;;;;;22.50;52.90;;;;;;1568501;74;1833;-69
2022/10/05 06:59:06;;;;;;;;;;;22.60;52.90;;;;;;1571345;75;1767;-67
2022/10/05 07:01:10;;;;;;;;;;;22.50;52.80;;;;;;1574493;75;2100;-66
2022/10/05 07:03:19;;;;;;;;;;;22.60;52.90;;;;;;1549536;75;1940;-66
2022/10/05 07:05:38;;;;;;;;;;;22.50;52.80;;;;;;1561302;74;1949;-68
2022/10/05 07:07:47;;;;;;;;;;;22.60;52.80;;;;;;1559391;74;742;-68
2022/10/05 07:09:51;;;;;;;;;;;22.50;52.90;;;;;;1563940;74;1550;-68
2022/10/05 07:11:54;;;;;;;;;;;22.50;52.80;;;;;;1563483;74;1954;-67
2022/10/05 07:14:14;;;;;;;;;;;22.50;52.80;;;;;;1554264;74;1766;-66
2022/10/05 07:16:18;;;;;;;;;;;22.50;52.80;;;;;;1552259;75;735;-66
2022/10/05 07:18:27;;;;;;;;;;;22.50;52.90;;;;;;1556721;75;784;-66
2022/10/05 07:20:33;;;;;;;;;;;22.50;52.90;;;;;;1564718;75;1884;-67
2022/10/05 07:22:36;;;;;;;;;;;22.50;52.80;;;;;;1557185;75;1938;-65
2022/10/05 07:24:49;;;;;;;;;;;22.60;52.70;;;;;;1556610;75;1544;-66
2022/10/05 07:27:08;;;;;;;;;;;22.50;52.70;;;;;;1557319;74;766;-64
2022/10/05 07:29:20;;;;;;;;;;;22.60;52.60;;;;;;1560787;74;823;-63
2022/10/05 07:31:24;;;;;;;;;;;22.50;52.70;;;;;;1558637;74;1134;-64
2022/10/05 07:33:30;;;;;;;;;;;22.50;52.70;;;;;;1556319;74;714;-65
2022/10/05 07:38:31;;;;;;;;;;;22.50;52.80;;;;;;1560732;74;1630;-65
2022/10/05 07:40:36;;;;;;;;;;;22.50;52.80;;;;;;1560135;74;640;-65
2022/10/05 07:42:46;;;;;;;;;;;22.50;52.80;;;;;;1564882;74;1935;-65
2022/10/05 07:44:51;;;;;;;;;;;22.50;52.90;;;;;;1556403;74;1776;-66
2022/10/05 07:47:03;;;;;;;;;;;22.50;53.00;;;;;;1558133;74;1973;-65
2022/10/05 07:49:07;;;;;;;;;;;22.60;53.00;;;;;;1564604;75;748;-63
2022/10/05 07:51:10;;;;;;;;;;;22.70;53.00;;;;;;1563189;75;1736;-65
2022/10/05 07:53:21;;;;;;;;;;;22.90;52.90;;;;;;1562015;75;1935;-66
2022/10/05 07:55:26;;;;;;;;;;;23.00;52.60;;;;;;1564350;74;1539;-61
2022/10/05 07:57:32;;;;;;;;;;;23.10;52.40;;;;;;1567890;75;1116;-65
2022/10/05 07:59:36;;;;;;;;;;;23.10;52.10;;;;;;1555715;74;784;-65
2022/10/05 08:01:39;;;;;;;;;;;23.20;51.80;;;;;;1561001;74;1815;-66
2022/10/05 08:03:51;;;;;;;;;;;23.30;51.70;;;;;;1555599;74;1892;-66
2022/10/05 08:05:53;;;;;;;;;;;23.30;51.40;;;;;;1553082;75;1520;-62
2022/10/05 08:07:56;;;;;;;;;;;23.30;51.50;;;;;;1561828;74;758;-65
2022/10/05 08:10:00;;;;;;;;;;;23.20;51.50;;;;;;1567509;74;819;-65
2022/10/05 08:12:06;;;;;;;;;;;23.20;51.70;;;;;;1566891;74;1916;-65
2022/10/05 08:14:10;;;;;;;;;;;23.30;51.70;;;;;;1557102;74;971;-67
2022/10/05 08:16:13;;;;;;;;;;;23.30;51.60;;;;;;1536582;74;1646;-64
2022/10/05 08:18:33;;;;;;;;;;;23.30;51.70;;;;;;1563048;75;730;-66
2022/10/05 08:20:42;;;;;;;;;;;23.20;51.50;;;;;;1559148;75;1573;-66
2022/10/05 08:22:46;;;;;;;;;;;23.20;51.60;;;;;;1559868;75;1994;-65
2022/10/05 08:25:01;;;;;;;;;;;23.20;51.60;;;;;;1558601;74;1960;-65
2022/10/05 08:27:08;;;;;;;;;;;23.30;51.50;;;;;;1547880;74;712;-65
2022/10/05 08:29:17;;;;;;;;;;;23.20;51.50;;;;;;1559816;75;707;-65
2022/10/05 08:31:26;;;;;;;;;;;23.30;51.60;;;;;;1531481;74;1064;-64
2022/10/05 08:33:30;;;;;;;;;;;23.30;51.50;;;;;;1557886;75;1891;-65
2022/10/05 08:35:37;;;;;;;;;;;23.30;51.40;;;;;;1531316;76;1610;-66
2022/10/05 08:37:40;;;;;;;;;;;23.30;51.30;;;;;;1562436;74;782;-65
2022/10/05 08:39:52;;;;;;;;;;;23.40;51.20;;;;;;1555566;74;1195;-65
2022/10/05 08:42:12;;;;;;;;;;;23.50;51.30;;;;;;1545460;75;1140;-67
2022/10/05 08:44:32;;;;;;;;;;;23.50;51.00;;;;;;1557657;74;1932;-65
2022/10/05 08:46:45;;;;;;;;;;;23.50;51.00;;;;;;1565903;74;729;-63
2022/10/05 08:49:07;;;;;;;;;;;23.60;50.90;;;;;;1556791;74;1844;-63
2022/10/05 08:51:13;;;;;;;;;;;23.50;50.80;;;;;;1555171;75;1694;-65
2022/10/05 08:53:33;;;;;;;;;;;23.50;50.60;;;;;;1562043;74;1069;-65
2022/10/05 08:55:49;;;;;;;;;;;23.50;50.60;;;;;;1554102;74;750;-65
2022/10/05 08:58:08;;;;;;;;;;;23.50;50.60;;;;;;1559482;74;803;-63
2022/10/05 09:00:11;;;;;;;;;;;23.60;50.50;;;;;;1556420;74;1892;-64
2022/10/05 09:02:27;;;;;;;;;;;23.60;50.50;;;;;;1559226;74;1550;-66
2022/10/05 09:04:34;;;;;;;;;;;23.50;50.50;;;;;;1555485;74;1903;-65
2022/10/05 09:06:41;;;;;;;;;;;23.60;50.30;;;;;;1573185;74;718;-66
2022/10/05 09:09:02;;;;;;;;;;;23.50;50.20;;;;;;1560998;75;711;-65
2022/10/05 09:11:11;;;;;;;;;;;23.50;50.20;;;;;;1550120;74;713;-65
2022/10/05 09:13:17;;;;;;;;;;;23.60;50.30;;;;;;1565052;74;1116;-65
2022/10/05 09:15:21;;;;;;;;;;;23.60;50.20;;;;;;1554370;75;669;-67
2022/10/05 09:17:33;;;;;;;;;;;23.50;50.20;;;;;;1557249;74;1623;-65
2022/10/05 09:19:39;;;;;;;;;;;23.50;50.20;;;;;;1556193;74;719;-66
2022/10/05 09:21:41;;;;;;;;;;;23.50;50.10;;;;;;1560873;74;1146;-65
2022/10/05 09:23:45;;;;;;;;;;;23.50;50.10;;;;;;1559510;74;1907;-65
2022/10/05 09:25:54;;;;;;;;;;;23.50;50.10;;;;;;1559563;75;722;-63
2022/10/05 09:27:58;;;;;;;;;;;23.60;50.00;;;;;;1549831;75;2014;-67
2022/10/05 09:30:18;;;;;;;;;;;23.60;50.10;;;;;;1550256;75;1586;-65
2022/10/05 09:32:22;;;;;;;;;;;23.60;49.90;;;;;;1559454;74;1150;-66
2022/10/05 09:34:31;;;;;;;;;;;23.70;49.70;;;;;;1565626;74;741;-68
2022/10/05 09:36:50;;;;;;;;;;;23.80;49.40;;;;;;1563899;75;1828;-66
2022/10/05 09:38:54;;;;;;;;;;;23.90;49.20;;;;;;1558612;75;707;-65
2022/10/05 09:41:14;;;;;;;;;;;24.00;49.00;;;;;;1560751;74;759;-66
2022/10/05 09:43:29;;;;;;;;;;;24.00;48.90;;;;;;1559194;74;1929;-67
2022/10/05 09:45:36;;;;;;;;;;;24.00;48.90;;;;;;1564668;74;1560;-66
2022/10/05 09:47:44;;;;;;;;;;;24.00;48.70;;;;;;1557446;74;730;-66
2022/10/05 09:49:59;;;;;;;;;;;24.00;48.60;;;;;;1555956;74;1797;-65
2022/10/05 09:52:19;;;;;;;;;;;24.00;48.50;;;;;;1553167;74;1871;-66
2022/10/05 09:54:28;;;;;;;;;;;24.00;48.50;;;;;;1553815;74;826;-66
2022/10/05 09:56:48;;;;;;;;;;;24.10;48.60;;;;;;1562454;74;652;-68
2022/10/05 09:59:08;;;;;;;;;;;24.10;48.50;;;;;;1555540;75;1548;-66
2022/10/05 10:01:27;;;;;;;;;;;24.00;48.30;;;;;;1554303;75;733;-66
2022/10/05 10:03:48;;;;;;;;;;;24.10;48.40;;;;;;1561780;74;1916;-65
2022/10/05 10:05:51;;;;;;;;;;;24.10;48.40;;;;;;1555827;74;716;-65
2022/10/05 10:08:13;;;;;;;;;;;24.00;48.40;;;;;;1556836;74;662;-67
2022/10/05 10:10:32;;;;;;;;;;;23.90;48.60;;;;;;1474105;78;1158;-65
2022/10/05 10:12:35;;;;;;;;;;;23.80;48.80;;;;;;1465768;79;1603;-65
2022/10/05 10:14:55;;;;;;;;;;;23.70;49.00;;;;;;1479598;78;851;-66
2022/10/05 10:16:58;;;;;;;;;;;23.60;49.10;;;;;;1555056;75;737;-65
2022/10/05 10:19:02;;;;;;;;;;;23.60;49.20;;;;;;1547527;74;776;-66
2022/10/05 10:21:05;;;;;;;;;;;23.60;49.40;;;;;;1551873;74;712;-67
2022/10/05 10:23:09;;;;;;;;;;;23.60;49.40;;;;;;1558455;74;1083;-66
2022/10/05 10:25:13;;;;;;;;;;;23.60;49.40;;;;;;1559196;74;1937;-66
2022/10/05 10:27:26;;;;;;;;;;;23.60;49.60;;;;;;1550481;75;2005;-67
2022/10/05 10:29:35;;;;;;;;;;;23.50;49.50;;;;;;1560034;74;762;-66
2022/10/05 10:31:45;;;;;;;;;;;23.50;49.70;;;;;;1563147;75;1145;-67
2022/10/05 10:33:49;;;;;;;;;;;23.60;49.70;;;;;;1558380;74;1767;-67
2022/10/05 10:36:07;;;;;;;;;;;23.60;49.50;;;;;;1557097;74;806;-67
2022/10/05 10:38:18;;;;;;;;;;;23.60;49.20;;;;;;1564557;75;824;-68
2022/10/05 10:40:22;;;;;;;;;;;23.70;49.40;;;;;;1553056;75;1879;-67
2022/10/05 10:42:37;;;;;;;;;;;23.70;49.20;;;;;;1560094;74;1863;-68
2022/10/05 10:44:53;;;;;;;;;;;23.80;49.00;;;;;;1561791;74;1923;-67
2022/10/05 10:47:08;;;;;;;;;;;23.90;48.80;;;;;;1543233;75;680;-66
2022/10/05 10:49:28;;;;;;;;;;;23.90;48.60;;;;;;1560224;74;750;-69
2022/10/05 10:51:35;;;;;;;;;;;24.00;48.60;;;;;;1561336;74;1163;-70
2022/10/05 10:54:01;;;;;;;;;;;23.90;48.60;;;;;;1554129;74;1935;-68
2022/10/05 10:56:01;;;;;;;;;;;23.90;48.60;;;;;;1566713;74;1617;-68
2022/10/05 10:58:08;;;;;;;;;;;23.90;48.60;;;;;;1553189;74;1881;-68
2022/10/05 11:00:30;;;;;;;;;;;23.90;48.60;;;;;;1551609;74;1947;-65
2022/10/05 11:02:41;;;;;;;;;;;23.90;48.60;;;;;;1557465;75;1289;-65
2022/10/05 11:04:52;;;;;;;;;;;24.00;48.60;;;;;;1549305;74;1922;-66
2022/10/05 11:06:58;;;;;;;;;;;24.00;48.60;;;;;;1554095;75;2153;-65
2022/10/05 11:09:07;;;;;;;;;;;24.00;48.60;;;;;;1566381;74;1520;-66
2022/10/05 11:11:16;;;;;;;;;;;24.00;48.70;;;;;;1567625;74;1663;-67
2022/10/05 11:13:32;;;;;;;;;;;24.00;48.80;;;;;;1553168;75;1110;-66
2022/10/05 11:15:38;;;;;;;;;;;24.00;48.90;;;;;;1565716;74;823;-68
2022/10/05 11:17:44;;;;;;;;;;;23.90;49.00;;;;;;1555245;75;1824;-65
2022/10/05 11:19:48;;;;;;;;;;;23.90;49.00;;;;;;1524546;75;1837;-65
2022/10/05 11:21:51;;;;;;;;;;;23.90;49.00;;;;;;1568119;74;1140;-65
2022/10/05 11:23:55;;;;;;;;;;;23.90;49.10;;;;;;1556756;75;1935;-66
2022/10/05 11:26:04;;;;;;;;;;;23.90;49.20;;;;;;1555912;74;1861;-65
2022/10/05 11:28:12;;;;;;;;;;;23.90;49.20;;;;;;1556543;75;790;-65
2022/10/05 11:30:21;;;;;;;;;;;23.90;49.20;;;;;;1556423;74;2038;-65
2022/10/05 11:32:42;;;;;;;;;;;23.90;49.30;;;;;;1549934;74;1145;-68
2022/10/05 11:34:52;;;;;;;;;;;23.80;49.30;;;;;;1555037;74;809;-68
2022/10/05 11:36:55;;;;;;;;;;;23.80;49.40;;;;;;1554970;74;1562;-65
2022/10/05 11:39:15;;;;;;;;;;;23.70;49.40;;;;;;1557995;74;704;-65
2022/10/05 11:41:19;;;;;;;;;;;23.80;49.40;;;;;;1556291;74;717;-68
2022/10/05 11:43:39;;;;;;;;;;;23.70;49.50;;;;;;1556411;74;1984;-66
2022/10/05 11:45:54;;;;;;;;;;;23.70;49.60;;;;;;1559321;74;1923;-67
2022/10/05 11:48:01;;;;;;;;;;;23.60;49.40;;;;;;1552467;75;812;-65
2022/10/05 11:50:23;;;;;;;;;;;23.70;49.60;;;;;;1560393;74;1873;-65
2022/10/05 11:52:26;;;;;;;;;;;23.70;49.70;;;;;;1562822;74;1522;-66
2022/10/05 11:54:39;;;;;;;;;;;23.60;49.60;;;;;;1562454;75;820;-66
2022/10/05 11:56:41;;;;;;;;;;;23.60;49.60;;;;;;1558083;74;584;-66
2022/10/05 11:58:45;;;;;;;;;;;23.60;49.70;;;;;;1570535;75;728;-66
2022/10/05 12:00:49;;;;;;;;;;;23.60;49.70;;;;;;1558903;74;1486;-62
2022/10/05 12:03:09;;;;;;;;;;;23.60;49.70;;;;;;1519365;76;1129;-65
2022/10/05 12:05:13;;;;;;;;;;;23.60;49.70;;;;;;1553857;74;1922;-66
2022/10/05 12:07:26;;;;;;;;;;;23.50;49.80;;;;;;1558369;75;692;-67
2022/10/05 12:10:13;;;;;;;;;;;23.60;49.80;;;;;;1551121;75;2415;-67
2022/10/05 12:12:00;;;;;;;;;;;23.60;49.80;;;;;;1550661;75;1460;-66
2022/10/05 12:14:07;;;;;;;;;;;23.50;49.90;;;;;;1541084;75;1725;-67
2022/10/05 12:16:19;;;;;;;;;;;23.60;49.90;;;;;;1567767;74;647;-67
2022/10/05 12:18:23;;;;;;;;;;;23.60;49.90;;;;;;1553721;74;1762;-67
2022/10/05 12:20:32;;;;;;;;;;;23.50;50.00;;;;;;1557176;74;1558;-68
2022/10/05 12:22:36;;;;;;;;;;;23.50;50.00;;;;;;1564504;74;1155;-68
2022/10/05 12:24:39;;;;;;;;;;;23.50;50.00;;;;;;1558227;74;1955;-67
2022/10/05 12:26:49;;;;;;;;;;;23.50;50.00;;;;;;1561309;74;736;-66
2022/10/05 12:28:55;;;;;;;;;;;23.50;50.00;;;;;;1565828;74;930;-68
2022/10/05 12:31:06;;;;;;;;;;;23.50;50.00;;;;;;1558665;74;701;-66
2022/10/05 12:33:10;;;;;;;;;;;23.50;50.00;;;;;;1559244;74;1574;-65
2022/10/05 12:35:13;;;;;;;;;;;23.50;50.00;;;;;;1564740;74;1654;-66
2022/10/05 12:37:19;;;;;;;;;;;23.50;50.00;;;;;;1504665;75;1117;-66
2022/10/05 12:39:38;;;;;;;;;;;23.50;50.00;;;;;;1562561;75;787;-65
2022/10/05 12:41:52;;;;;;;;;;;23.50;50.00;;;;;;1567178;75;1171;-65
2022/10/05 12:44:05;;;;;;;;;;;23.40;49.80;;;;;;1555200;74;959;-65
2022/10/05 12:46:08;;;;;;;;;;;23.40;49.90;;;;;;1552003;74;996;-65